Time;durP1;ratioP1;P1;durP2;ratioP2;P2;SDS_P1;SDS_P2;PMS_P1;PMS_P2;Temp;Humidity;BMP_temperature;BMP_pressure;BME280_temperature;BME280_humidity;BME280_pressure;Samples;Min_cycle;Max_cycle;Signal;HPM_P1;HPM_P2
2023/08/08 00:14:55;;;;;;;15.70;2.90;;;;;;;20.88;59.66;99149.19;670120;1263;24253;-77
2023/08/08 00:29:58;;;;;;;6.70;2.40;;;;;;;20.82;58.80;99161.30;670349;1260;22555;-76
2023/08/08 00:45:03;;;;;;;12.40;2.80;;;;;;;20.89;58.66;99169.09;669665;1265;23173;-77
2023/08/08 01:00:09;;;;;;;10.10;2.60;;;;;;;20.96;58.80;99191.80;668793;1270;23420;-77
2023/08/08 01:15:14;;;;;;;9.90;3.00;;;;;;;20.88;59.35;99207.86;669055;1274;22972;-77
2023/08/08 01:30:31;;;;;;;10.30;3.10;;;;;;;20.73;60.27;99216.93;670443;1273;22651;-75
2023/08/08 01:45:56;;;;;;;11.90;4.10;;;;;;;20.35;60.73;99222.15;670352;1265;25419;-77
2023/08/08 02:01:03;;;;;;;6.20;2.70;;;;;;;20.69;59.47;99235.30;670493;1265;22592;-77
2023/08/08 02:16:07;;;;;;;10.00;4.00;;;;;;;19.93;61.00;99254.52;670468;1263;22591;-78
2023/08/08 02:31:10;;;;;;;9.90;3.30;;;;;;;20.04;61.08;99269.67;670608;1266;22545;-76
2023/08/08 02:46:14;;;;;;;9.60;3.10;;;;;;;19.94;61.70;99280.05;670842;1263;22698;-78
2023/08/08 03:01:17;;;;;;;12.90;3.00;;;;;;;20.16;61.58;99284.42;670746;1264;22643;-77
2023/08/08 03:16:22;;;;;;;7.60;2.40;;;;;;;20.05;62.06;99297.09;668822;1263;666153;-76
2023/08/08 03:31:27;;;;;;;10.20;2.60;;;;;;;20.12;62.46;99310.50;669206;1265;23914;-77
2023/08/08 03:46:31;;;;;;;8.50;2.50;;;;;;;19.59;63.86;99321.59;671297;1275;139599;-76
2023/08/08 04:01:37;;;;;;;6.30;3.20;;;;;;;19.48;65.03;99334.81;675429;1264;138755;-78
2023/08/08 04:16:41;;;;;;;4.20;2.70;;;;;;;19.60;65.42;99355.71;676820;1261;139548;-77
2023/08/08 04:31:44;;;;;;;9.90;3.30;;;;;;;19.57;65.70;99374.40;676316;1263;139964;-78
2023/08/08 04:46:49;;;;;;;7.70;3.20;;;;;;;19.84;65.80;99387.73;679254;1263;139825;-78
2023/08/08 05:01:53;;;;;;;8.10;2.30;;;;;;;19.94;66.16;99400.52;672572;1261;139260;-78
2023/08/08 05:16:56;;;;;;;7.20;2.50;;;;;;;20.30;64.41;99410.02;672359;1273;139544;-77
2023/08/08 05:31:59;;;;;;;9.20;2.90;;;;;;;20.93;63.07;99422.55;671545;1264;139336;-78
2023/08/08 05:47:03;;;;;;;7.10;2.80;;;;;;;21.33;62.89;99441.34;672469;1261;139958;-76
2023/08/08 06:02:07;;;;;;;4.50;3.30;;;;;;;23.37;59.54;99443.90;673158;1260;140526;-76
2023/08/08 06:17:10;;;;;;;6.10;2.40;;;;;;;24.56;55.77;99458.30;674847;1260;138795;-77
2023/08/08 06:32:13;;;;;;;9.90;2.70;;;;;;;25.01;54.10;99467.71;670452;1260;139339;-78
2023/08/08 06:47:17;;;;;;;7.70;2.40;;;;;;;22.64;57.65;99481.49;670050;1263;138467;-79
2023/08/08 07:02:20;;;;;;;7.50;3.10;;;;;;;23.19;57.57;99486.05;669927;1262;138995;-76
2023/08/08 07:17:24;;;;;;;39.30;16.80;;;;;;;23.95;55.89;99500.42;668861;1262;140178;-77
2023/08/08 07:32:27;;;;;;;7.20;3.60;;;;;;;22.75;58.18;99515.02;668764;1264;140798;-76
2023/08/08 07:47:34;;;;;;;10.70;4.70;;;;;;;22.08;60.08;99524.14;669235;1264;138930;-77
2023/08/08 08:02:38;;;;;;;10.90;3.00;;;;;;;22.06;60.09;99539.39;668710;1262;139319;-77
2023/08/08 08:17:42;;;;;;;10.10;3.80;;;;;;;23.97;57.43;99551.54;670341;1259;140912;-78
2023/08/08 08:32:46;;;;;;;7.70;2.60;;;;;;;24.49;53.72;99549.36;671301;1264;139490;-78
2023/08/08 08:47:55;;;;;;;13.60;4.00;;;;;;;23.30;54.66;99540.71;671284;1262;139689;-77
2023/08/08 09:02:59;;;;;;;6.00;2.30;;;;;;;23.22;54.49;99557.13;668801;1262;139735;-78
2023/08/08 09:18:03;;;;;;;7.80;2.40;;;;;;;23.53;55.03;99574.90;669565;1262;138910;-77
2023/08/08 09:33:07;;;;;;;14.40;3.30;;;;;;;24.07;53.53;99583.92;669075;1259;138350;-78
2023/08/08 09:48:10;;;;;;;16.50;2.90;;;;;;;23.92;52.27;99596.25;676839;1259;136976;-78
2023/08/08 10:03:14;;;;;;;3.10;1.70;;;;;;;24.04;52.67;99620.36;669778;1259;138893;-77
2023/08/08 10:18:21;;;;;;;5.70;1.70;;;;;;;24.31;51.48;99622.50;668707;1262;138692;-78
2023/08/08 10:33:27;;;;;;;6.50;2.30;;;;;;;24.21;52.69;99628.95;668561;1262;140096;-77
2023/08/08 10:48:32;;;;;;;4.00;2.10;;;;;;;26.15;48.86;99632.65;670502;1275;138385;-77
2023/08/08 11:03:41;;;;;;;4.00;1.60;;;;;;;26.71;47.08;99624.25;670420;1262;140472;-77
2023/08/08 11:18:45;;;;;;;4.60;1.80;;;;;;;25.85;47.73;99632.40;671672;1261;139365;-76
2023/08/08 11:33:48;;;;;;;8.10;1.70;;;;;;;26.26;47.46;99650.23;669249;1266;139046;-78
2023/08/08 11:48:52;;;;;;;3.30;1.40;;;;;;;26.64;47.70;99658.98;670780;1262;139231;-75
2023/08/08 12:03:57;;;;;;;2.20;1.60;;;;;;;26.33;47.95;99669.20;668775;1262;139556;-75
2023/08/08 12:19:07;;;;;;;6.60;2.50;;;;;;;26.49;48.84;99675.59;668989;1262;139869;-76
2023/08/08 12:34:10;;;;;;;8.50;2.20;;;;;;;26.82;47.51;99683.10;668789;1261;138512;-77
2023/08/08 12:49:14;;;;;;;3.20;1.70;;;;;;;26.48;47.67;99674.40;671839;1262;22670;-77
2023/08/08 13:04:17;;;;;;;9.60;3.30;;;;;;;27.09;47.39;99682.92;668936;1259;23367;-78
2023/08/08 13:19:24;;;;;;;10.00;3.80;;;;;;;25.84;49.66;99696.91;669421;1262;22564;-77
2023/08/08 13:34:28;;;;;;;6.60;2.10;;;;;;;25.01;50.03;99723.58;668460;1264;23488;-77
2023/08/08 13:49:36;;;;;;;5.90;2.30;;;;;;;24.52;57.70;99737.92;668149;1262;22706;-74
2023/08/08 14:04:46;;;;;;;4.50;1.90;;;;;;;24.58;59.35;99727.54;668378;1262;24200;-77
2023/08/08 14:20:09;;;;;;;;;;;;;;;25.53;56.53;99719.08;670734;1264;136941;-77
2023/08/08 14:35:13;;;;;;;6.50;1.50;;;;;;;26.13;51.86;99716.61;668631;1262;22611;-77
2023/08/08 14:50:17;;;;;;;5.10;1.70;;;;;;;25.74;50.79;99726.80;668613;1262;139846;-76
2023/08/08 15:05:20;;;;;;;4.80;1.40;;;;;;;24.53;52.78;99733.45;671993;1265;138949;-78
2023/08/08 15:20:26;;;;;;;2.20;1.00;;;;;;;24.97;52.00;99741.75;669794;1264;137813;-76
2023/08/08 15:48:28;;;;;;;1.40;1.00;;;;;;;24.98;52.76;99757.56;649480;1298;545862;-77
2023/08/08 16:03:34;;;;;;;1.50;0.60;;;;;;;24.88;52.25;99775.08;665685;1266;23486;-77
2023/08/08 16:18:38;;;;;;;2.80;1.20;;;;;;;24.28;51.53;99779.16;665349;1273;25398;-76
2023/08/08 16:33:42;;;;;;;4.50;1.40;;;;;;;23.67;54.08;99789.96;664747;1273;137685;-77
2023/08/08 16:48:49;;;;;;;2.10;1.40;;;;;;;22.98;56.89;99795.66;664872;1270;22739;-76
2023/08/08 17:03:54;;;;;;;10.50;4.20;;;;;;;22.49;59.02;99799.45;666216;1272;22605;-76
2023/08/08 17:19:05;;;;;;;4.20;2.60;;;;;;;22.49;61.19;99798.25;665155;1273;22575;-77
2023/08/08 17:34:27;;;;;;;30.90;14.30;;;;;;;22.07;63.74;99803.27;664854;1273;22608;-77
2023/08/08 17:49:33;;;;;;;21.70;10.70;;;;;;;22.02;65.35;99799.70;665534;1270;138079;-77
2023/08/08 18:04:43;;;;;;;11.90;7.90;;;;;;;21.78;66.71;99797.41;665864;1273;22549;-77
2023/08/08 18:19:54;;;;;;;5.80;3.30;;;;;;;21.52;66.25;99800.02;667390;1272;24387;-78
2023/08/08 18:35:00;;;;;;;9.20;4.40;;;;;;;20.76;68.15;99814.89;668184;1271;24424;-77
2023/08/08 18:50:06;;;;;;;6.40;3.40;;;;;;;20.51;70.93;99845.50;665366;1274;22601;-77
2023/08/08 19:05:11;;;;;;;4.90;2.50;;;;;;;21.13;69.25;99859.39;665370;1274;138301;-77
2023/08/08 19:20:19;;;;;;;3.40;1.70;;;;;;;21.14;66.65;99856.71;668860;1265;22575;-78
2023/08/08 19:35:27;;;;;;;3.40;1.40;;;;;;;21.39;64.46;99848.91;668290;1265;24753;-76
2023/08/08 19:50:37;;;;;;;3.40;1.50;;;;;;;21.33;63.54;99840.79;668652;1262;138854;-78
2023/08/08 20:05:42;;;;;;;2.40;1.90;;;;;;;21.18;64.13;99833.23;669037;1267;137452;-78
2023/08/08 20:20:49;;;;;;;3.50;2.00;;;;;;;20.55;67.52;99827.52;670050;1265;22552;-78
2023/08/08 20:35:53;;;;;;;3.90;2.40;;;;;;;19.91;72.36;99817.59;668852;1265;22549;-77
2023/08/08 20:50:59;;;;;;;3.50;2.40;;;;;;;19.67;74.67;99809.61;669940;1273;22928;-78
2023/08/08 21:06:03;;;;;;;4.70;2.50;;;;;;;18.90;77.75;99819.55;670430;1265;22581;-78
2023/08/08 21:21:08;;;;;;;5.00;2.60;;;;;;;18.69;78.17;99817.42;668242;1266;22571;-78
2023/08/08 21:36:11;;;;;;;4.10;2.30;;;;;;;18.79;78.61;99818.30;672084;1263;23351;-76
2023/08/08 21:51:15;;;;;;;5.10;2.50;;;;;;;19.01;76.04;99828.71;668152;1262;22566;-77
2023/08/08 22:06:20;;;;;;;3.80;2.70;;;;;;;19.05;74.99;99847.05;668066;1267;138440;-76
2023/08/08 22:21:24;;;;;;;5.20;3.40;;;;;;;19.25;74.60;99847.86;668066;1265;24896;-76
2023/08/08 22:36:31;;;;;;;3.30;2.90;;;;;;;19.24;75.34;99856.73;669229;1260;138282;-77
2023/08/08 22:51:36;;;;;;;6.00;3.90;;;;;;;19.53;74.96;99862.61;669913;1260;23546;-76
2023/08/08 23:06:39;;;;;;;4.40;2.80;;;;;;;19.15;78.02;99857.58;669806;1262;138138;-75
2023/08/08 23:21:43;;;;;;;4.60;2.80;;;;;;;19.35;77.08;99861.24;669684;1262;25348;-75
2023/08/08 23:36:46;;;;;;;7.20;3.40;;;;;;;19.36;77.21;99865.02;670230;1262;22585;-75
2023/08/08 23:51:50;;;;;;;5.10;3.50;;;;;;;19.36;77.33;99882.85;670077;1262;138538;-74
